createdAt,value
2023-02-15T00:01:34.608Z,3.63
2023-02-15T00:04:02.119Z,3.97
2023-02-15T00:06:29.437Z,4.00
2023-02-15T00:08:56.753Z,3.77
2023-02-15T00:11:44.690Z,3.90
2023-02-15T00:14:14.134Z,3.70
2023-02-15T00:16:44.805Z,3.53
2023-02-15T00:19:13.024Z,3.23
2023-02-15T00:21:41.152Z,3.80
2023-02-15T00:24:09.564Z,3.60
2023-02-15T00:26:37.548Z,3.90
2023-02-15T00:29:04.882Z,3.80
2023-02-15T00:31:33.243Z,3.67
2023-02-15T00:34:04.725Z,3.43
2023-02-15T00:36:32.303Z,3.37
2023-02-15T00:38:59.654Z,3.40
2023-02-15T00:41:27.034Z,3.70
2023-02-15T00:43:54.424Z,3.73
2023-02-15T00:46:21.917Z,3.67
2023-02-15T00:48:49.272Z,3.67
2023-02-15T00:51:16.709Z,3.40
2023-02-15T00:53:45.238Z,3.47
2023-02-15T00:56:12.742Z,3.70
2023-02-15T00:58:40.440Z,3.77
2023-02-15T01:01:11.640Z,4.20
2023-02-15T01:03:39.406Z,3.80
2023-02-15T01:06:06.790Z,3.60
2023-02-15T01:08:34.170Z,3.43
2023-02-15T01:11:23.369Z,3.40
2023-02-15T01:14:00.727Z,3.70
2023-02-15T01:16:29.166Z,3.60
2023-02-15T01:18:56.943Z,3.37
2023-02-15T01:21:26.125Z,3.53
2023-02-15T01:23:53.535Z,3.27
2023-02-15T01:26:21.046Z,3.27
2023-02-15T01:28:48.513Z,3.93
2023-02-15T01:31:18.902Z,3.73
2023-02-15T01:33:47.099Z,3.33
2023-02-15T01:36:15.213Z,3.90
2023-02-15T01:38:42.842Z,3.20
2023-02-15T01:41:25.576Z,3.50
2023-02-15T01:43:58.834Z,3.93
2023-02-15T01:46:32.525Z,3.37
2023-02-15T01:49:04.979Z,3.40
2023-02-15T01:51:33.887Z,3.57
2023-02-15T01:54:04.378Z,3.80
2023-02-15T01:56:35.202Z,3.63
2023-02-15T01:59:05.143Z,3.57
2023-02-15T02:01:32.536Z,3.80
2023-02-15T02:04:06.148Z,3.93
2023-02-15T02:06:34.435Z,4.40
2023-02-15T02:09:02.086Z,3.83
2023-02-15T02:11:29.783Z,4.20
2023-02-15T02:13:57.684Z,4.20
2023-02-15T02:16:25.104Z,3.93
2023-02-15T02:19:11.330Z,4.00
2023-02-15T02:21:54.283Z,3.37
2023-02-15T02:24:21.634Z,4.13
2023-02-15T02:26:48.951Z,4.37
2023-02-15T02:29:34.638Z,4.73
2023-02-15T02:32:08.067Z,4.67
2023-02-15T02:34:38.862Z,4.10
2023-02-15T02:37:12.422Z,4.53
2023-02-15T02:39:58.501Z,4.33
2023-02-15T02:42:37.620Z,4.33
2023-02-15T02:45:11.105Z,4.20
2023-02-15T02:47:41.932Z,4.47
2023-02-15T02:50:11.046Z,4.77
2023-02-15T02:52:45.997Z,4.97
2023-02-15T02:55:13.339Z,4.00
2023-02-15T02:57:54.066Z,4.10
2023-02-15T03:00:23.033Z,4.30
2023-02-15T03:02:52.652Z,4.13
2023-02-15T03:05:24.504Z,4.50
2023-02-15T03:07:53.796Z,4.50
2023-02-15T03:10:23.936Z,4.40
2023-02-15T03:12:52.090Z,6.23
2023-02-15T03:15:48.326Z,4.57
2023-02-15T03:18:16.783Z,4.20
2023-02-15T03:20:45.340Z,4.63
2023-02-15T03:23:15.129Z,4.67
2023-02-15T03:25:44.698Z,4.60
2023-02-15T03:28:20.154Z,4.83
2023-02-15T03:30:49.769Z,4.70
2023-02-15T03:33:17.331Z,4.50
2023-02-15T03:35:51.507Z,4.70
2023-02-15T03:38:21.801Z,4.63
2023-02-15T03:41:07.607Z,4.93
2023-02-15T03:43:55.359Z,5.30
2023-02-15T03:46:31.973Z,5.17
2023-02-15T03:49:02.232Z,4.87
2023-02-15T03:51:34.521Z,4.83
2023-02-15T03:54:12.063Z,5.43
2023-02-15T03:56:40.788Z,5.50
2023-02-15T03:59:27.141Z,5.43
2023-02-15T04:02:06.482Z,5.87
2023-02-15T04:04:40.977Z,5.70
2023-02-15T04:07:09.270Z,5.53
2023-02-15T04:09:55.202Z,5.60
2023-02-15T04:12:22.583Z,5.60
2023-02-15T04:15:08.477Z,5.93
2023-02-15T04:17:37.723Z,5.57
2023-02-15T04:20:23.801Z,5.43
2023-02-15T04:35:50.209Z,4.23
2023-02-15T04:38:17.588Z,5.27
2023-02-15T04:40:44.935Z,5.40
2023-02-15T04:43:12.373Z,5.77
2023-02-15T04:45:39.698Z,5.10
2023-02-15T04:48:07.419Z,5.83
2023-02-15T04:50:34.752Z,5.30
2023-02-15T04:53:02.051Z,5.83
2023-02-15T04:55:29.508Z,5.73
2023-02-15T04:57:56.922Z,5.67
2023-02-15T05:00:24.348Z,5.67
2023-02-15T05:02:51.694Z,6.07
2023-02-15T05:05:19.217Z,6.27
2023-02-15T05:07:46.770Z,5.37
2023-02-15T05:10:14.208Z,5.90
2023-02-15T05:12:41.576Z,6.20
2023-02-15T05:15:09.174Z,5.70
2023-02-15T05:17:36.546Z,5.83
2023-02-15T05:20:04.393Z,5.90
2023-02-15T05:22:31.829Z,6.30
2023-02-15T05:25:17.733Z,5.23
2023-02-15T05:28:05.234Z,5.63
2023-02-15T05:30:32.936Z,5.40
2023-02-15T05:33:00.377Z,5.80
2023-02-15T05:35:27.723Z,5.83
2023-02-15T05:37:55.141Z,7.10
2023-02-15T05:40:22.493Z,6.13
2023-02-15T05:42:49.911Z,6.27
2023-02-15T05:45:17.268Z,6.47
2023-02-15T05:47:44.856Z,6.50
2023-02-15T05:50:12.429Z,5.93
2023-02-15T05:52:39.834Z,6.50
2023-02-15T05:55:08.050Z,5.90
2023-02-15T05:57:35.397Z,5.77
2023-02-15T06:00:05.339Z,5.50
2023-02-15T06:02:39.625Z,5.50
2023-02-15T06:05:07.612Z,5.90
2023-02-15T06:07:35.099Z,5.77
2023-02-15T06:10:02.588Z,6.30
2023-02-15T06:12:30.073Z,5.63
2023-02-15T06:14:57.441Z,5.73
2023-02-15T06:17:24.894Z,6.00
2023-02-15T06:19:52.256Z,6.13
2023-02-15T06:22:19.702Z,7.13
2023-02-15T06:24:47.109Z,7.80
2023-02-15T06:27:14.528Z,5.73
2023-02-15T06:29:41.928Z,6.23
2023-02-15T06:32:09.277Z,5.70
2023-02-15T06:34:36.734Z,5.67
2023-02-15T06:37:04.163Z,5.60
2023-02-15T06:39:31.645Z,5.70
2023-02-15T06:41:59.392Z,5.83
2023-02-15T06:44:26.816Z,6.17
2023-02-15T06:46:54.157Z,5.67
2023-02-15T06:49:21.573Z,6.20
2023-02-15T06:51:49.061Z,6.07
2023-02-15T06:54:16.563Z,5.83
2023-02-15T06:56:44.629Z,5.97
2023-02-15T06:59:12.041Z,5.57
2023-02-15T07:01:39.556Z,5.67
2023-02-15T07:04:06.951Z,6.03
2023-02-15T07:06:34.818Z,5.47
2023-02-15T07:09:02.213Z,5.77
2023-02-15T07:11:48.135Z,5.47
2023-02-15T07:14:15.647Z,5.40
2023-02-15T07:16:43.120Z,5.73
2023-02-15T07:19:10.546Z,5.73
2023-02-15T07:21:37.993Z,6.33
2023-02-15T07:24:05.419Z,5.50
2023-02-15T07:26:33.322Z,5.73
2023-02-15T07:29:00.778Z,5.73
2023-02-15T07:31:28.206Z,5.10
2023-02-15T07:33:55.739Z,5.50
2023-02-15T07:36:23.133Z,4.73
2023-02-15T07:38:50.533Z,5.27
2023-02-15T07:41:18.048Z,5.13
2023-02-15T07:43:46.191Z,5.43
2023-02-15T07:46:15.883Z,5.80
2023-02-15T07:48:43.903Z,5.53
2023-02-15T07:51:12.254Z,5.80
2023-02-15T07:53:40.519Z,6.20
2023-02-15T07:56:12.670Z,5.40
2023-02-15T07:58:52.119Z,5.30
2023-02-15T08:01:27.084Z,5.77
2023-02-15T08:03:56.973Z,5.30
2023-02-15T08:06:26.132Z,5.27
2023-02-15T08:08:54.343Z,5.83
2023-02-15T08:11:26.418Z,5.30
2023-02-15T08:13:54.991Z,4.97
2023-02-15T08:16:24.195Z,5.60
2023-02-15T08:18:52.158Z,5.60
2023-02-15T08:21:19.723Z,5.27
2023-02-15T08:23:47.480Z,5.50
2023-02-15T08:26:15.189Z,5.33
2023-02-15T08:28:42.947Z,5.43
2023-02-15T08:31:12.199Z,5.57
2023-02-15T08:33:41.097Z,5.80
2023-02-15T08:36:10.237Z,6.27
2023-02-15T08:38:37.613Z,5.80
2023-02-15T08:41:15.470Z,6.07
2023-02-15T08:43:43.048Z,7.30
2023-02-15T08:46:11.201Z,6.87
2023-02-15T08:48:38.902Z,7.37
2023-02-15T08:51:07.715Z,5.70
2023-02-15T08:53:35.301Z,5.77
2023-02-15T08:56:02.763Z,4.50
2023-02-15T08:58:31.798Z,5.60
2023-02-15T09:00:59.942Z,5.60
2023-02-15T09:03:27.519Z,5.67
2023-02-15T09:06:00.224Z,5.47
2023-02-15T09:08:28.548Z,5.40
2023-02-15T09:10:56.178Z,5.67
2023-02-15T09:13:23.636Z,5.90
2023-02-15T09:15:50.989Z,6.23
2023-02-15T09:18:18.362Z,5.97
2023-02-15T09:20:46.117Z,5.53
2023-02-15T09:23:25.522Z,5.37
2023-02-15T09:25:54.420Z,5.93
2023-02-15T09:28:21.801Z,5.47
2023-02-15T09:30:49.354Z,5.70
2023-02-15T09:33:16.838Z,4.60
2023-02-15T09:35:44.274Z,5.17
2023-02-15T09:38:13.051Z,5.67
2023-02-15T09:40:44.068Z,4.53
2023-02-15T09:43:22.462Z,5.80
2023-02-15T09:45:58.583Z,6.10
2023-02-15T09:48:32.734Z,6.07
2023-02-15T09:51:20.258Z,6.00
2023-02-15T09:53:57.177Z,5.83
2023-02-15T09:56:31.248Z,5.70
2023-02-15T09:59:05.593Z,5.93
2023-02-15T10:01:36.208Z,6.13
2023-02-15T10:04:09.519Z,5.57
2023-02-15T10:06:42.772Z,5.70
2023-02-15T10:09:25.008Z,5.17
2023-02-15T10:12:04.466Z,5.77
2023-02-15T10:14:32.869Z,5.70
2023-02-15T10:17:19.113Z,5.50
2023-02-15T10:19:58.969Z,5.73
2023-02-15T10:22:45.352Z,5.97
2023-02-15T10:25:38.235Z,5.77
2023-02-15T10:28:15.899Z,6.07
2023-02-15T10:30:49.224Z,6.47
2023-02-15T10:33:33.312Z,6.83
2023-02-15T10:36:03.762Z,6.30
2023-02-15T10:38:46.323Z,6.13
2023-02-15T10:41:13.671Z,5.80
2023-02-15T10:43:50.150Z,5.87
2023-02-15T10:46:20.613Z,5.13
2023-02-15T10:48:48.047Z,6.03
2023-02-15T10:51:34.195Z,5.57
2023-02-15T10:54:33.836Z,5.63
2023-02-15T10:57:06.032Z,6.10
2023-02-15T10:59:49.071Z,5.47
2023-02-15T11:02:17.389Z,5.63
2023-02-15T11:04:55.720Z,5.70
2023-02-15T11:07:26.200Z,5.80
2023-02-15T11:09:55.820Z,5.20
2023-02-15T11:12:25.102Z,5.33
2023-02-15T11:15:11.528Z,5.80
2023-02-15T11:17:41.476Z,6.27
2023-02-15T11:20:11.986Z,6.90
2023-02-15T11:22:39.936Z,6.23
2023-02-15T11:25:16.798Z,6.67
2023-02-15T11:27:47.319Z,6.50
2023-02-15T11:30:16.504Z,7.13
2023-02-15T11:32:46.271Z,5.70
2023-02-15T11:35:21.682Z,6.50
2023-02-15T11:37:49.081Z,6.27
2023-02-15T11:40:25.750Z,5.87
2023-02-15T11:42:58.050Z,6.17
2023-02-15T11:45:32.931Z,7.10
2023-02-15T11:48:01.240Z,16.03
2023-02-15T11:50:30.238Z,13.17
2023-02-15T11:53:06.209Z,5.67
2023-02-15T11:55:36.137Z,7.43
2023-02-15T11:58:22.004Z,5.77
2023-02-15T12:00:51.867Z,6.77
2023-02-15T12:03:25.309Z,14.00
2023-02-15T12:05:58.282Z,6.30
2023-02-15T12:08:26.183Z,7.03
2023-02-15T12:11:08.289Z,8.77
2023-02-15T12:13:35.853Z,6.77
2023-02-15T12:16:09.339Z,5.77
2023-02-15T12:18:40.512Z,6.80
2023-02-15T12:21:14.489Z,6.40
2023-02-15T12:23:45.255Z,6.33
2023-02-15T12:26:12.720Z,6.23
2023-02-15T12:28:42.588Z,6.63
2023-02-15T12:31:21.354Z,6.43
2023-02-15T12:33:48.997Z,6.27
2023-02-15T12:36:20.963Z,6.50
2023-02-15T12:39:14.863Z,6.50
2023-02-15T12:41:58.668Z,6.07
2023-02-15T12:44:27.962Z,5.63
2023-02-15T12:47:01.560Z,6.00
2023-02-15T12:49:30.293Z,6.30
2023-02-15T12:51:59.691Z,6.43
2023-02-15T12:54:33.231Z,6.17
2023-02-15T12:57:01.285Z,5.40
2023-02-15T12:59:28.717Z,6.57
2023-02-15T13:01:56.492Z,6.73
2023-02-15T13:04:26.628Z,6.13
2023-02-15T13:06:55.417Z,6.67
2023-02-15T13:09:30.944Z,6.13
2023-02-15T13:11:59.322Z,6.77
2023-02-15T13:14:33.775Z,6.87
2023-02-15T13:17:03.980Z,6.63
2023-02-15T13:19:36.034Z,6.60
2023-02-15T13:22:16.253Z,6.97
2023-02-15T13:25:00.314Z,6.20
2023-02-15T13:27:38.999Z,6.90
2023-02-15T13:30:21.441Z,6.27
2023-02-15T13:32:50.435Z,6.80
2023-02-15T13:35:19.948Z,5.97
2023-02-15T13:37:47.257Z,8.73
2023-02-15T13:40:24.403Z,6.27
2023-02-15T13:42:55.606Z,7.23
2023-02-15T13:45:24.532Z,7.07
2023-02-15T13:48:02.791Z,6.47
2023-02-15T13:50:30.321Z,6.10
2023-02-15T13:53:16.312Z,6.97
2023-02-15T13:55:53.462Z,6.90
2023-02-15T13:58:35.768Z,6.93
2023-02-15T14:01:15.346Z,7.27
2023-02-15T14:03:54.178Z,5.83
2023-02-15T14:06:34.023Z,6.87
2023-02-15T14:09:10.744Z,7.60
2023-02-15T14:11:56.968Z,6.53
2023-02-15T14:14:24.373Z,6.87
2023-02-15T14:17:07.532Z,7.67
2023-02-15T14:19:46.816Z,6.20
2023-02-15T14:22:20.917Z,7.50
2023-02-15T14:25:01.990Z,7.13
2023-02-15T14:27:55.222Z,7.43
2023-02-15T14:30:24.990Z,7.53
2023-02-15T14:33:08.261Z,7.93
2023-02-15T14:35:39.154Z,6.87
2023-02-15T14:38:15.364Z,7.23
2023-02-15T14:41:05.140Z,7.17
2023-02-15T14:43:52.021Z,7.30
2023-02-15T14:46:29.951Z,7.87
2023-02-15T14:48:59.099Z,7.33
2023-02-15T14:51:43.656Z,6.90
2023-02-15T14:54:12.026Z,7.47
2023-02-15T14:56:42.411Z,7.67
2023-02-15T14:59:22.789Z,7.20
2023-02-15T15:02:00.412Z,7.37
2023-02-15T15:04:31.650Z,7.10
2023-02-15T15:07:20.177Z,7.23
2023-02-15T15:09:50.145Z,6.93
2023-02-15T15:12:17.477Z,7.47
2023-02-15T15:14:46.805Z,7.20
2023-02-15T15:17:15.701Z,7.30
2023-02-15T15:19:51.554Z,8.10
2023-02-15T15:22:19.810Z,7.50
2023-02-15T15:24:47.887Z,8.23
2023-02-15T15:27:33.986Z,7.20
2023-02-15T15:30:02.500Z,7.63
2023-02-15T15:32:32.189Z,7.90
2023-02-15T15:35:02.726Z,7.13
2023-02-15T15:37:45.310Z,8.70
2023-02-15T15:40:21.705Z,7.43
2023-02-15T15:42:49.089Z,7.53
2023-02-15T15:45:16.464Z,8.53
2023-02-15T15:47:51.363Z,7.97
2023-02-15T15:50:23.553Z,8.13
2023-02-15T15:52:59.745Z,8.67
2023-02-15T15:55:29.344Z,8.30
2023-02-15T15:58:05.816Z,7.90
2023-02-15T16:00:51.185Z,7.90
2023-02-15T16:03:25.808Z,8.43
2023-02-15T16:05:57.236Z,7.57
2023-02-15T16:08:42.905Z,9.47
2023-02-15T16:11:20.324Z,8.57
2023-02-15T16:13:48.797Z,8.20
2023-02-15T16:16:22.324Z,7.33
2023-02-15T16:18:50.044Z,8.50
2023-02-15T16:21:22.083Z,8.47
2023-02-15T16:23:59.731Z,8.00
2023-02-15T16:26:27.136Z,8.37
2023-02-15T16:28:55.573Z,7.57
2023-02-15T16:31:23.851Z,7.40
2023-02-15T16:33:54.027Z,8.10
2023-02-15T16:36:28.703Z,7.47
2023-02-15T16:38:56.248Z,6.93
2023-02-15T16:41:28.279Z,7.70
2023-02-15T16:43:56.466Z,8.40
2023-02-15T16:46:29.970Z,8.20
2023-02-15T16:48:59.618Z,7.87
2023-02-15T16:51:28.947Z,8.10
2023-02-15T16:53:57.260Z,7.80
2023-02-15T16:56:28.651Z,7.90
2023-02-15T16:58:58.768Z,7.17
2023-02-15T17:01:28.312Z,7.87
2023-02-15T17:04:16.067Z,8.23
2023-02-15T17:06:58.796Z,8.13
2023-02-15T17:09:26.581Z,7.90
2023-02-15T17:11:54.462Z,7.77
2023-02-15T17:14:23.014Z,8.27
2023-02-15T17:16:52.189Z,7.73
2023-02-15T17:19:25.486Z,7.87
2023-02-15T17:21:54.752Z,8.00
2023-02-15T17:24:37.397Z,7.90
2023-02-15T17:27:16.228Z,7.83
2023-02-15T17:29:53.794Z,7.77
2023-02-15T17:32:23.205Z,7.70
2023-02-15T17:34:56.656Z,8.13
2023-02-15T17:37:32.005Z,8.10
2023-02-15T17:40:00.631Z,8.20
2023-02-15T17:42:28.389Z,7.17
2023-02-15T17:44:55.912Z,7.53
2023-02-15T17:47:25.623Z,7.83
2023-02-15T17:49:54.424Z,7.70
2023-02-15T17:52:22.261Z,8.40
2023-02-15T17:55:08.218Z,7.77
2023-02-15T17:57:35.629Z,8.20
2023-02-15T18:00:21.546Z,8.20
2023-02-15T18:03:07.560Z,7.90
2023-02-15T18:05:53.438Z,8.93
2023-02-15T18:08:42.878Z,7.97
2023-02-15T18:11:29.764Z,7.97
2023-02-15T18:14:01.352Z,8.80
2023-02-15T18:16:31.363Z,9.03
2023-02-15T18:18:58.871Z,8.53
2023-02-15T18:21:26.575Z,8.63
2023-02-15T18:23:53.971Z,8.70
2023-02-15T18:26:22.467Z,8.97
2023-02-15T18:28:50.377Z,8.83
2023-02-15T18:31:18.567Z,9.10
2023-02-15T18:33:54.981Z,9.90
2023-02-15T18:36:25.270Z,10.90
2023-02-15T18:38:54.213Z,8.93
2023-02-15T18:41:22.447Z,9.10
2023-02-15T18:43:50.400Z,9.07
2023-02-15T18:46:18.117Z,9.70
2023-02-15T18:48:46.514Z,9.80
2023-02-15T18:51:18.528Z,9.20
2023-02-15T18:53:46.400Z,9.00
2023-02-15T18:56:16.320Z,8.73
2023-02-15T18:58:45.701Z,9.13
2023-02-15T19:01:19.105Z,8.83
2023-02-15T19:03:50.697Z,9.67
2023-02-15T19:06:19.315Z,8.60
2023-02-15T19:08:48.916Z,9.07
2023-02-15T19:11:20.782Z,9.07
2023-02-15T19:13:49.173Z,8.63
2023-02-15T19:16:30.948Z,9.40
2023-02-15T19:18:58.444Z,8.93
2023-02-15T19:21:26.224Z,9.10
2023-02-15T19:23:58.050Z,8.67
2023-02-15T19:26:36.317Z,8.87
2023-02-15T19:29:13.177Z,8.90
2023-02-15T19:31:40.698Z,8.87
2023-02-15T19:34:15.955Z,9.33
2023-02-15T19:36:47.626Z,9.30
2023-02-15T19:39:21.226Z,8.87
2023-02-15T19:41:48.976Z,8.67
2023-02-15T19:44:17.769Z,9.43
2023-02-15T19:46:45.698Z,8.63
2023-02-15T19:49:13.494Z,8.70
2023-02-15T19:51:40.967Z,8.80
2023-02-15T19:54:28.697Z,8.80
2023-02-15T19:56:56.399Z,8.80
2023-02-15T19:59:25.857Z,9.30
2023-02-15T20:01:53.370Z,8.73
2023-02-15T20:04:20.876Z,9.40
2023-02-15T20:06:49.318Z,9.03
2023-02-15T20:09:21.276Z,9.13
2023-02-15T20:11:48.746Z,8.60
2023-02-15T20:14:16.237Z,9.83
2023-02-15T20:16:43.824Z,9.13
2023-02-15T20:19:12.964Z,8.93
2023-02-15T20:21:43.385Z,9.23
2023-02-15T20:24:18.390Z,8.83
2023-02-15T20:26:46.016Z,8.53
2023-02-15T20:29:18.527Z,9.23
2023-02-15T20:31:46.490Z,8.87
2023-02-15T20:34:14.371Z,9.00
2023-02-15T20:36:42.166Z,9.23
2023-02-15T20:39:15.400Z,8.73
2023-02-15T20:41:47.970Z,8.60
2023-02-15T20:44:18.552Z,8.60
2023-02-15T20:46:46.263Z,9.30
2023-02-15T20:49:13.767Z,8.60
2023-02-15T20:51:42.076Z,8.87
2023-02-15T20:54:14.428Z,9.20
2023-02-15T20:56:42.731Z,8.53
2023-02-15T20:59:21.275Z,8.90
2023-02-15T21:01:49.061Z,9.33
2023-02-15T21:04:20.901Z,8.70
2023-02-15T21:06:48.419Z,6.50
2023-02-15T21:09:16.579Z,8.73
2023-02-15T21:11:47.680Z,7.70
2023-02-15T21:14:22.471Z,9.10
2023-02-15T21:16:50.372Z,8.73
2023-02-15T21:19:19.250Z,9.33
2023-02-15T21:21:47.204Z,9.10
2023-02-15T21:24:24.034Z,9.50
2023-02-15T21:26:51.741Z,8.97
2023-02-15T21:29:21.620Z,8.93
2023-02-15T21:31:49.238Z,9.50
2023-02-15T21:34:18.189Z,9.70
2023-02-15T21:36:46.559Z,9.03
2023-02-15T21:39:20.249Z,8.23
2023-02-15T21:42:07.220Z,8.87
2023-02-15T21:44:53.132Z,9.30
2023-02-15T21:47:40.574Z,8.53
2023-02-15T21:50:28.427Z,8.17
2023-02-15T21:52:56.531Z,9.40
2023-02-15T21:55:23.907Z,9.50
2023-02-15T21:57:51.399Z,9.90
2023-02-15T22:00:20.033Z,8.30
2023-02-15T22:02:48.696Z,9.70
2023-02-15T22:05:17.565Z,8.50
2023-02-15T22:07:45.186Z,9.67
2023-02-15T22:10:13.061Z,9.23
2023-02-15T22:12:42.219Z,9.00
2023-02-15T22:15:20.492Z,8.13
2023-02-15T22:17:48.262Z,9.70
2023-02-15T22:20:20.618Z,10.20
2023-02-15T22:22:48.536Z,9.13
2023-02-15T22:25:17.364Z,9.37
2023-02-15T22:27:45.726Z,9.63
2023-02-15T22:30:19.853Z,9.07
2023-02-15T22:32:47.379Z,9.07
2023-02-15T22:35:23.489Z,9.67
2023-02-15T22:37:50.926Z,9.60
2023-02-15T22:40:18.895Z,9.60
2023-02-15T22:42:47.720Z,10.57
2023-02-15T22:45:20.065Z,9.23
2023-02-15T22:47:48.597Z,9.37
2023-02-15T22:50:20.201Z,9.03
2023-02-15T22:52:47.628Z,9.90
2023-02-15T22:55:16.287Z,9.07
2023-02-15T22:57:44.128Z,9.23
2023-02-15T23:00:16.285Z,9.47
2023-02-15T23:02:43.848Z,9.27
2023-02-15T23:05:17.583Z,9.80
2023-02-15T23:07:45.202Z,10.10
2023-02-15T23:10:21.232Z,9.23
2023-02-15T23:13:12.298Z,10.67
2023-02-15T23:15:39.898Z,9.33
2023-02-15T23:18:18.600Z,10.47
2023-02-15T23:20:47.569Z,9.80
2023-02-15T23:23:15.720Z,9.37
2023-02-15T23:25:43.302Z,10.53
2023-02-15T23:28:21.256Z,9.50
2023-02-15T23:30:48.849Z,10.70
2023-02-15T23:33:16.297Z,9.87
2023-02-15T23:35:43.638Z,9.90
2023-02-15T23:38:22.100Z,9.87
2023-02-15T23:41:10.728Z,9.87
2023-02-15T23:43:38.934Z,9.07
2023-02-15T23:46:07.885Z,9.93
2023-02-15T23:48:37.561Z,9.80
2023-02-15T23:51:06.066Z,9.50
2023-02-15T23:53:33.907Z,10.47
2023-02-15T23:56:01.368Z,10.27
2023-02-15T23:58:40.384Z,9.77
